Time;durP1;ratioP1;P1;durP2;ratioP2;P2;SDS_P1;SDS_P2;PMS_P1;PMS_P2;Temp;Humidity;BMP_temperature;BMP_pressure;BME280_temperature;BME280_humidity;BME280_pressure;Samples;Min_cycle;Max_cycle;Signal;HPM_P1;HPM_P2
2021/10/11 00:02:22;;;;;;;;;63.00;51.00;;;;;;;;5060168;28;10950;-73
2021/10/11 00:04:50;;;;;;;;;61.50;49.75;;;;;;;;5064213;28;10480;-73
2021/10/11 00:07:17;;;;;;;;;69.00;54.50;;;;;;;;5062544;28;10634;-74
2021/10/11 00:09:45;;;;;;;;;64.00;50.00;;;;;;;;5062540;28;11516;-80
2021/10/11 00:12:13;;;;;;;;;69.25;55.25;;;;;;;;5044958;28;10561;-79
2021/10/11 00:14:40;;;;;;;;;65.25;52.50;;;;;;;;5059549;28;10602;-78
2021/10/11 00:17:09;;;;;;;;;69.00;57.75;;;;;;;;5061991;28;10587;-75
2021/10/11 00:19:37;;;;;;;;;66.00;52.25;;;;;;;;5061322;28;10877;-78
2021/10/11 00:22:05;;;;;;;;;63.00;50.25;;;;;;;;5062157;28;10606;-79
2021/10/11 00:24:32;;;;;;;;;65.50;52.50;;;;;;;;5062486;28;10679;-72
2021/10/11 00:27:00;;;;;;;;;69.00;53.25;;;;;;;;5061635;28;10871;-75
2021/10/11 00:29:27;;;;;;;;;63.00;50.00;;;;;;;;5061955;28;10622;-73
2021/10/11 00:31:54;;;;;;;;;65.50;51.75;;;;;;;;5058522;28;10612;-79
2021/10/11 00:34:23;;;;;;;;;59.75;50.75;;;;;;;;5061789;28;10657;-83
2021/10/11 00:36:50;;;;;;;;;67.75;53.25;;;;;;;;5063174;28;10701;-78
2021/10/11 00:39:17;;;;;;;;;67.25;52.50;;;;;;;;5051624;28;10642;-82
2021/10/11 00:41:44;;;;;;;;;67.75;53.75;;;;;;;;5061199;28;10853;-79
2021/10/11 00:44:12;;;;;;;;;65.50;53.25;;;;;;;;5063789;28;11568;-76
2021/10/11 00:46:39;;;;;;;;;65.25;52.25;;;;;;;;5049746;28;10800;-75
2021/10/11 00:49:06;;;;;;;;;57.25;47.75;;;;;;;;5065704;28;10562;-74
2021/10/11 00:51:35;;;;;;;;;64.00;49.50;;;;;;;;5065920;28;10599;-82
2021/10/11 00:54:02;;;;;;;;;66.25;52.00;;;;;;;;5067195;28;11202;-77
2021/10/11 00:56:30;;;;;;;;;68.00;54.50;;;;;;;;5064221;28;10677;-81
2021/10/11 00:58:57;;;;;;;;;59.50;47.25;;;;;;;;5067331;28;10896;-76
2021/10/11 01:01:25;;;;;;;;;66.25;52.00;;;;;;;;5064887;28;10822;-80
2021/10/11 01:03:52;;;;;;;;;59.25;48.50;;;;;;;;5067233;28;10764;-73
2021/10/11 01:06:19;;;;;;;;;66.50;53.25;;;;;;;;5066035;28;10790;-79
2021/10/11 01:08:48;;;;;;;;;67.25;52.25;;;;;;;;5063739;28;11465;-80
2021/10/11 01:11:15;;;;;;;;;64.50;50.25;;;;;;;;5064777;28;10668;-75
2021/10/11 01:13:42;;;;;;;;;69.00;51.25;;;;;;;;5062760;28;10505;-80
2021/10/11 01:16:10;;;;;;;;;64.00;52.75;;;;;;;;5066301;28;10617;-74
2021/10/11 01:18:37;;;;;;;;;60.00;49.75;;;;;;;;5030695;28;10311;-78
2021/10/11 01:21:06;;;;;;;;;67.25;51.75;;;;;;;;5047690;28;10372;-75
2021/10/11 01:23:34;;;;;;;;;65.50;51.75;;;;;;;;5065839;28;10544;-74
2021/10/11 01:26:01;;;;;;;;;64.75;50.25;;;;;;;;5064606;28;10946;-78
2021/10/11 01:28:29;;;;;;;;;58.50;47.00;;;;;;;;5066709;28;10335;-77
2021/10/11 01:30:56;;;;;;;;;60.50;49.25;;;;;;;;5063642;28;10163;-79
2021/10/11 01:33:23;;;;;;;;;60.25;49.00;;;;;;;;5064775;28;10206;-80
2021/10/11 01:35:51;;;;;;;;;56.75;47.25;;;;;;;;5063386;28;10143;-75
2021/10/11 01:38:20;;;;;;;;;60.00;48.50;;;;;;;;5065260;28;10138;-75
2021/10/11 01:40:48;;;;;;;;;57.75;48.00;;;;;;;;5063895;28;10197;-78
2021/10/11 01:43:15;;;;;;;;;54.25;44.25;;;;;;;;5064759;28;10380;-78
2021/10/11 01:45:46;;;;;;;;;56.75;45.00;;;;;;;;5065680;28;10705;-79
2021/10/11 01:48:13;;;;;;;;;47.25;36.75;;;;;;;;5065590;28;9825;-76
2021/10/11 01:50:41;;;;;;;;;44.75;37.50;;;;;;;;5061298;28;9644;-81
2021/10/11 01:53:08;;;;;;;;;48.50;41.00;;;;;;;;5063859;28;9660;-80
2021/10/11 01:55:37;;;;;;;;;40.67;35.33;;;;;;;;5064702;28;9574;-75
2021/10/11 01:58:04;;;;;;;;;36.00;33.67;;;;;;;;5063942;28;9368;-79
2021/10/11 02:00:32;;;;;;;;;37.00;34.00;;;;;;;;5065008;28;10049;-79
2021/10/11 02:03:04;;;;;;;;;42.33;33.67;;;;;;;;5065566;28;9450;-74
2021/10/11 02:05:32;;;;;;;;;38.00;34.00;;;;;;;;5059980;28;9332;-77
2021/10/11 02:07:59;;;;;;;;;28.50;25.00;;;;;;;;5064913;28;9102;-74
2021/10/11 02:10:27;;;;;;;;;24.00;21.67;;;;;;;;5064073;28;9950;-79
2021/10/11 02:12:56;;;;;;;;;29.33;27.67;;;;;;;;5064173;28;9232;-80
2021/10/11 02:15:23;;;;;;;;;24.75;22.25;;;;;;;;5062962;28;9189;-76
2021/10/11 02:17:50;;;;;;;;;25.00;22.67;;;;;;;;5061297;28;8932;-83
2021/10/11 02:20:18;;;;;;;;;24.33;23.33;;;;;;;;5063495;28;9123;-81
2021/10/11 02:22:46;;;;;;;;;23.25;20.25;;;;;;;;5062724;28;8962;-75
2021/10/11 02:25:13;;;;;;;;;24.00;21.00;;;;;;;;5065797;28;8856;-74
2021/10/11 02:27:40;;;;;;;;;19.00;17.67;;;;;;;;5063641;28;8868;-75
2021/10/11 02:30:11;;;;;;;;;23.33;19.67;;;;;;;;5064936;28;8992;-78
2021/10/11 02:32:41;;;;;;;;;18.75;18.50;;;;;;;;5063414;28;8951;-82
2021/10/11 02:35:09;;;;;;;;;18.75;13.50;;;;;;;;5064156;28;8884;-82
2021/10/11 02:37:36;;;;;;;;;14.00;13.50;;;;;;;;5063945;28;8880;-82
2021/10/11 02:40:06;;;;;;;;;13.00;13.00;;;;;;;;5062960;28;9650;-80
2021/10/11 02:42:33;;;;;;;;;15.00;14.00;;;;;;;;5064430;28;8933;-77
2021/10/11 02:45:00;;;;;;;;;13.50;10.00;;;;;;;;5063635;28;8880;-79
2021/10/11 02:47:29;;;;;;;;;9.25;9.25;;;;;;;;5060112;28;8860;-78
2021/10/11 02:49:57;;;;;;;;;6.00;6.00;;;;;;;;5063060;28;8982;-79
2021/10/11 02:52:28;;;;;;;;;9.50;9.50;;;;;;;;5064958;28;8860;-79
2021/10/11 02:54:55;;;;;;;;;8.25;8.25;;;;;;;;5059082;28;8884;-74
2021/10/11 02:57:22;;;;;;;;;8.75;8.25;;;;;;;;5063669;28;8868;-76
2021/10/11 02:59:49;;;;;;;;;5.00;5.00;;;;;;;;5064541;28;8883;-79
2021/10/11 03:02:16;;;;;;;;;4.00;4.00;;;;;;;;5061443;28;8915;-77
2021/10/11 03:04:45;;;;;;;;;6.25;6.25;;;;;;;;5064029;28;8864;-75
2021/10/11 03:07:12;;;;;;;;;6.00;4.25;;;;;;;;5060766;28;8864;-76
2021/10/11 03:09:39;;;;;;;;;3.25;3.25;;;;;;;;5063064;28;8872;-74
2021/10/11 03:12:07;;;;;;;;;2.50;2.50;;;;;;;;5062875;28;8868;-76
2021/10/11 03:14:34;;;;;;;;;5.00;4.25;;;;;;;;5064790;28;8882;-77
2021/10/11 03:17:02;;;;;;;;;4.50;4.50;;;;;;;;5062133;28;8960;-76
2021/10/11 03:19:29;;;;;;;;;4.50;4.50;;;;;;;;5063186;28;9002;-77
2021/10/11 03:21:58;;;;;;;;;3.00;3.00;;;;;;;;5061027;28;9598;-74
2021/10/11 03:24:25;;;;;;;;;4.75;4.75;;;;;;;;5045221;28;9780;-78
2021/10/11 03:26:52;;;;;;;;;2.75;2.75;;;;;;;;5063422;28;9757;-75
2021/10/11 03:29:19;;;;;;;;;1.50;1.50;;;;;;;;5061674;28;8860;-75
2021/10/11 03:31:48;;;;;;;;;9.00;5.00;;;;;;;;5064040;28;8808;-78
2021/10/11 03:34:16;;;;;;;;;3.00;3.00;;;;;;;;5064002;28;8856;-78
2021/10/11 03:36:44;;;;;;;;;3.00;3.00;;;;;;;;5062452;28;8853;-80
2021/10/11 03:39:13;;;;;;;;;3.00;3.00;;;;;;;;5045723;28;8875;-80
2021/10/11 03:41:40;;;;;;;;;4.00;4.00;;;;;;;;5062956;28;8988;-79
2021/10/11 03:44:07;;;;;;;;;3.00;3.00;;;;;;;;5063309;28;8916;-81
2021/10/11 03:46:35;;;;;;;;;5.00;3.25;;;;;;;;5061826;28;8885;-80
2021/10/11 03:49:03;;;;;;;;;3.75;3.00;;;;;;;;5062477;28;8848;-75
2021/10/11 03:51:31;;;;;;;;;2.75;2.75;;;;;;;;5059351;28;8872;-78
2021/10/11 03:53:58;;;;;;;;;3.25;3.25;;;;;;;;5060191;28;8960;-75
2021/10/11 03:56:27;;;;;;;;;3.00;2.75;;;;;;;;5059983;28;8862;-74
2021/10/11 03:58:54;;;;;;;;;3.25;3.25;;;;;;;;5062467;28;8876;-73
2021/10/11 04:01:21;;;;;;;;;3.00;3.00;;;;;;;;5061542;28;8825;-76
2021/10/11 04:03:50;;;;;;;;;2.25;2.25;;;;;;;;5061421;28;8860;-75
2021/10/11 04:06:17;;;;;;;;;3.00;3.00;;;;;;;;5071414;28;8852;-77
2021/10/11 04:08:46;;;;;;;;;4.33;4.33;;;;;;;;5061656;28;8860;-75
2021/10/11 04:11:23;;;;;;;;;7.00;4.00;;;;;;;;5063378;28;9045;-74
2021/10/11 04:13:52;;;;;;;;;4.67;4.67;;;;;;;;5056390;28;9084;-78
2021/10/11 04:16:19;;;;;;;;;4.00;4.00;;;;;;;;5044118;28;9206;-74
2021/10/11 04:18:47;;;;;;;;;4.00;4.00;;;;;;;;5064046;28;9074;-76
2021/10/11 04:21:14;;;;;;;;;5.00;5.00;;;;;;;;5062758;28;9193;-78
2021/10/11 04:23:41;;;;;;;;;3.67;3.00;;;;;;;;5062460;28;9139;-78
2021/10/11 04:26:09;;;;;;;;;7.67;6.33;;;;;;;;5061833;28;9302;-74
2021/10/11 04:28:36;;;;;;;;;6.33;6.33;;;;;;;;5063451;28;9912;-79
2021/10/11 04:31:06;;;;;;;;;7.00;7.00;;;;;;;;5042872;28;9282;-76
2021/10/11 04:33:33;;;;;;;;;10.67;9.33;;;;;;;;5061881;28;9217;-75
2021/10/11 04:36:00;;;;;;;;;10.67;8.00;;;;;;;;5062796;28;10043;-74
2021/10/11 04:38:28;;;;;;;;;9.00;8.00;;;;;;;;5043741;28;9206;-76
2021/10/11 04:40:55;;;;;;;;;5.00;5.00;;;;;;;;5062464;28;9198;-78
2021/10/11 04:43:22;;;;;;;;;4.00;4.00;;;;;;;;5062860;28;9287;-79
2021/10/11 04:45:50;;;;;;;;;5.00;5.00;;;;;;;;5062300;28;9193;-80
2021/10/11 04:48:18;;;;;;;;;3.33;3.33;;;;;;;;5044227;28;9539;-78
2021/10/11 04:50:46;;;;;;;;;8.00;6.33;;;;;;;;5060050;28;9176;-76
2021/10/11 04:53:14;;;;;;;;;4.67;4.67;;;;;;;;5062017;28;9287;-77
2021/10/11 04:55:41;;;;;;;;;7.67;7.67;;;;;;;;5044861;28;9266;-75
2021/10/11 04:58:09;;;;;;;;;5.33;5.33;;;;;;;;5061895;28;9359;-79
2021/10/11 05:00:37;;;;;;;;;9.00;5.33;;;;;;;;5059784;28;9437;-79
2021/10/11 05:03:04;;;;;;;;;7.00;7.00;;;;;;;;5062272;28;9273;-76
2021/10/11 05:05:33;;;;;;;;;7.00;4.67;;;;;;;;5061723;28;9318;-79
2021/10/11 05:08:01;;;;;;;;;4.33;4.33;;;;;;;;5062543;28;9305;-75
2021/10/11 05:10:29;;;;;;;;;6.25;4.00;;;;;;;;5060583;28;9387;-78
2021/10/11 05:12:57;;;;;;;;;3.75;3.75;;;;;;;;5054944;28;9511;-75
2021/10/11 05:15:24;;;;;;;;;5.33;5.33;;;;;;;;5041628;28;10436;-77
2021/10/11 05:17:51;;;;;;;;;5.00;5.00;;;;;;;;5060397;28;9475;-76
2021/10/11 05:20:19;;;;;;;;;6.50;6.50;;;;;;;;5062149;28;9407;-78
2021/10/11 05:22:48;;;;;;;;;4.75;4.75;;;;;;;;5061378;28;9397;-78
2021/10/11 05:25:15;;;;;;;;;4.25;4.25;;;;;;;;5061600;28;9586;-81
2021/10/11 05:27:43;;;;;;;;;6.25;4.00;;;;;;;;5061310;28;10299;-80
2021/10/11 05:30:11;;;;;;;;;3.00;3.00;;;;;;;;5061988;28;9623;-77
2021/10/11 05:32:38;;;;;;;;;8.00;6.00;;;;;;;;5046261;28;9352;-78
2021/10/11 05:35:06;;;;;;;;;7.25;6.00;;;;;;;;5057183;28;10331;-78
2021/10/11 05:37:36;;;;;;;;;4.25;4.25;;;;;;;;5062953;28;9498;-78
2021/10/11 05:40:06;;;;;;;;;6.25;6.00;;;;;;;;5063924;28;9422;-79
2021/10/11 05:42:34;;;;;;;;;8.50;6.75;;;;;;;;5066274;28;9483;-78
2021/10/11 05:45:01;;;;;;;;;7.25;4.50;;;;;;;;5065816;28;9623;-78
2021/10/11 05:47:28;;;;;;;;;12.25;7.75;;;;;;;;5063390;28;9505;-78
2021/10/11 05:49:56;;;;;;;;;7.00;7.00;;;;;;;;5065885;28;9446;-77
2021/10/11 05:52:23;;;;;;;;;4.75;4.00;;;;;;;;5064475;28;11589;-78
2021/10/11 05:54:50;;;;;;;;;7.75;7.00;;;;;;;;5065739;28;9521;-78
2021/10/11 05:57:19;;;;;;;;;10.00;7.00;;;;;;;;5045504;28;10342;-76
2021/10/11 05:59:46;;;;;;;;;6.33;6.33;;;;;;;;5062217;28;10084;-77
2021/10/11 06:02:13;;;;;;;;;5.75;5.75;;;;;;;;5061371;28;9419;-76
2021/10/11 06:04:41;;;;;;;;;7.75;7.75;;;;;;;;5045325;28;9507;-78
2021/10/11 06:07:08;;;;;;;;;6.00;6.00;;;;;;;;5064959;28;9652;-79
2021/10/11 06:09:35;;;;;;;;;7.50;7.50;;;;;;;;5056769;28;9794;-78
2021/10/11 06:12:03;;;;;;;;;4.00;4.00;;;;;;;;5042510;28;9623;-79
2021/10/11 06:14:32;;;;;;;;;7.50;3.75;;;;;;;;5064497;28;10559;-77
2021/10/11 06:16:59;;;;;;;;;4.50;3.00;;;;;;;;5066180;28;9586;-77
2021/10/11 06:19:26;;;;;;;;;6.00;4.00;;;;;;;;5063409;28;9560;-79
2021/10/11 06:21:54;;;;;;;;;7.25;7.25;;;;;;;;5058415;28;9748;-78
2021/10/11 06:24:21;;;;;;;;;12.00;8.75;;;;;;;;5063668;28;9694;-79
2021/10/11 06:26:49;;;;;;;;;7.75;7.75;;;;;;;;5064143;28;9702;-80
2021/10/11 06:29:16;;;;;;;;;7.25;6.75;;;;;;;;5065842;28;9791;-79
2021/10/11 06:31:45;;;;;;;;;10.00;9.50;;;;;;;;5062892;28;10410;-76
2021/10/11 06:34:12;;;;;;;;;4.00;4.00;;;;;;;;5058763;28;9722;-77
2021/10/11 06:36:39;;;;;;;;;7.00;7.00;;;;;;;;5061285;28;9630;-77
2021/10/11 06:39:06;;;;;;;;;5.50;5.50;;;;;;;;5063549;28;9527;-77
2021/10/11 06:41:34;;;;;;;;;8.00;8.00;;;;;;;;5061318;28;9464;-79
2021/10/11 06:44:01;;;;;;;;;9.50;7.25;;;;;;;;5057941;28;9778;-76
2021/10/11 06:46:29;;;;;;;;;6.00;3.25;;;;;;;;5061316;28;9772;-78
2021/10/11 06:48:57;;;;;;;;;7.00;7.00;;;;;;;;5044879;28;10386;-78
2021/10/11 06:51:25;;;;;;;;;7.50;7.50;;;;;;;;5062198;28;9707;-78
2021/10/11 06:53:52;;;;;;;;;7.75;6.75;;;;;;;;5063201;28;9727;-79
2021/10/11 06:56:19;;;;;;;;;7.25;7.25;;;;;;;;5055595;28;9708;-79
2021/10/11 06:58:46;;;;;;;;;8.25;7.00;;;;;;;;5063889;28;9698;-78
2021/10/11 07:01:14;;;;;;;;;5.00;5.00;;;;;;;;5043131;28;9642;-75
2021/10/11 07:03:41;;;;;;;;;15.75;9.50;;;;;;;;5063305;28;9659;-78
2021/10/11 07:06:17;;;;;;;;;4.00;4.00;;;;;;;;5059012;28;10317;-78
2021/10/11 07:08:44;;;;;;;;;3.00;1.25;;;;;;;;5063550;28;9549;-77
2021/10/11 07:11:12;;;;;;;;;7.25;7.25;;;;;;;;5052849;28;9701;-78
2021/10/11 07:13:39;;;;;;;;;6.00;6.00;;;;;;;;5051085;28;9716;-78
2021/10/11 07:16:06;;;;;;;;;4.50;4.50;;;;;;;;5061165;28;9581;-79
2021/10/11 07:18:35;;;;;;;;;8.00;8.00;;;;;;;;5059103;28;9744;-79
2021/10/11 07:21:02;;;;;;;;;9.50;9.50;;;;;;;;5060861;28;9624;-78
2021/10/11 07:23:31;;;;;;;;;7.25;5.50;;;;;;;;5061066;28;9610;-78
2021/10/11 07:25:59;;;;;;;;;7.00;7.00;;;;;;;;5040226;28;9475;-77
2021/10/11 07:28:26;;;;;;;;;8.25;8.25;;;;;;;;5060281;28;9578;-76
2021/10/11 07:30:54;;;;;;;;;9.75;8.25;;;;;;;;5043383;28;9582;-75
2021/10/11 07:33:22;;;;;;;;;9.50;7.50;;;;;;;;5059448;28;9472;-75
2021/10/11 07:35:50;;;;;;;;;23.00;20.25;;;;;;;;5055082;28;9628;-77
2021/10/11 07:38:17;;;;;;;;;28.75;26.00;;;;;;;;5058052;28;9911;-77
2021/10/11 07:40:46;;;;;;;;;17.00;10.75;;;;;;;;5057553;28;10157;-76
2021/10/11 07:43:14;;;;;;;;;10.00;8.50;;;;;;;;5061320;28;9686;-78
2021/10/11 07:45:41;;;;;;;;;5.33;5.33;;;;;;;;5054597;28;9463;-78
2021/10/11 07:48:08;;;;;;;;;8.00;8.00;;;;;;;;5060627;28;9471;-76
2021/10/11 07:50:36;;;;;;;;;7.67;5.33;;;;;;;;5062427;28;9333;-77
2021/10/11 07:53:03;;;;;;;;;7.00;7.00;;;;;;;;5060689;28;9290;-77
2021/10/11 07:55:31;;;;;;;;;7.00;7.00;;;;;;;;5057338;28;9262;-78
2021/10/11 07:58:00;;;;;;;;;9.33;5.00;;;;;;;;5057717;28;9406;-76
2021/10/11 08:00:27;;;;;;;;;8.00;8.00;;;;;;;;5060997;28;9120;-77
2021/10/11 08:02:54;;;;;;;;;9.67;9.00;;;;;;;;5055986;28;9170;-78
2021/10/11 08:05:22;;;;;;;;;5.00;5.00;;;;;;;;5058541;28;9362;-76
2021/10/11 08:07:49;;;;;;;;;9.33;7.67;;;;;;;;5057951;28;9095;-78
2021/10/11 08:10:16;;;;;;;;;8.00;7.00;;;;;;;;5052598;28;9084;-78
2021/10/11 08:12:44;;;;;;;;;10.00;10.00;;;;;;;;5044368;28;9886;-79
2021/10/11 08:15:12;;;;;;;;;14.00;14.00;;;;;;;;5060662;28;9233;-76
2021/10/11 08:17:40;;;;;;;;;13.67;13.67;;;;;;;;5049753;28;9960;-76
2021/10/11 08:20:08;;;;;;;;;17.00;16.00;;;;;;;;5057701;28;9222;-79
2021/10/11 08:22:38;;;;;;;;;8.00;8.00;;;;;;;;5057623;28;9018;-78
2021/10/11 08:25:07;;;;;;;;;6.25;6.25;;;;;;;;5059261;28;8872;-76
2021/10/11 08:27:34;;;;;;;;;5.00;5.00;;;;;;;;5060778;28;8864;-79
2021/10/11 08:30:02;;;;;;;;;5.50;4.00;;;;;;;;5056987;28;8912;-79
2021/10/11 08:32:33;;;;;;;;;6.50;6.50;;;;;;;;5059324;28;8911;-79
2021/10/11 08:35:00;;;;;;;;;4.75;4.75;;;;;;;;5051951;28;8862;-78
2021/10/11 08:37:29;;;;;;;;;5.75;5.00;;;;;;;;5059025;28;8864;-78
2021/10/11 08:39:56;;;;;;;;;7.25;5.50;;;;;;;;5060948;28;8860;-78
2021/10/11 08:42:24;;;;;;;;;6.00;6.00;;;;;;;;5059804;28;8857;-77
2021/10/11 08:44:51;;;;;;;;;5.00;5.00;;;;;;;;5063123;28;8863;-79
2021/10/11 08:47:19;;;;;;;;;4.00;4.00;;;;;;;;5059253;28;8867;-78
2021/10/11 08:49:50;;;;;;;;;6.00;6.00;;;;;;;;5043692;28;8868;-76
2021/10/11 08:52:21;;;;;;;;;4.00;4.00;;;;;;;;5060403;28;8852;-78
2021/10/11 08:54:49;;;;;;;;;6.50;6.00;;;;;;;;5059440;28;8876;-76
2021/10/11 08:57:24;;;;;;;;;5.25;5.25;;;;;;;;5044131;28;8928;-79
2021/10/11 08:59:51;;;;;;;;;4.50;4.25;;;;;;;;5054617;28;8899;-76
2021/10/11 09:02:20;;;;;;;;;3.75;3.75;;;;;;;;5058266;28;8797;-76
2021/10/11 09:04:52;;;;;;;;;3.75;3.75;;;;;;;;5063556;28;8883;-77
2021/10/11 09:07:23;;;;;;;;;4.25;2.75;;;;;;;;5066384;28;8999;-77
2021/10/11 09:09:52;;;;;;;;;4.00;4.00;;;;;;;;5063388;28;9622;-78
2021/10/11 09:12:20;;;;;;;;;5.50;4.50;;;;;;;;5064490;28;8892;-77
2021/10/11 09:14:52;;;;;;;;;2.00;2.00;;;;;;;;5066847;28;8872;-78
2021/10/11 09:17:28;;;;;;;;;2.00;2.00;;;;;;;;5059444;28;8895;-78
2021/10/11 09:20:00;;;;;;;;;5.00;2.75;;;;;;;;5040772;28;9673;-77
2021/10/11 09:22:35;;;;;;;;;2.50;2.50;;;;;;;;5062565;28;8988;-78
2021/10/11 09:25:03;;;;;;;;;2.50;0.50;;;;;;;;5065330;28;8868;-77
2021/10/11 09:27:30;;;;;;;;;3.00;3.00;;;;;;;;5064975;28;8880;-77
2021/10/11 09:29:58;;;;;;;;;2.75;1.00;;;;;;;;5059803;28;8884;-77
2021/10/11 09:32:32;;;;;;;;;2.25;2.00;;;;;;;;5060351;28;8817;-77
2021/10/11 09:35:17;;;;;;;;;1.75;1.75;;;;;;;;5066315;28;8882;-78
2021/10/11 09:37:50;;;;;;;;;2.00;2.00;;;;;;;;5064954;28;8973;-78
2021/10/11 09:40:18;;;;;;;;;3.50;2.25;;;;;;;;5067326;28;8856;-78
2021/10/11 09:42:45;;;;;;;;;2.00;2.00;;;;;;;;5065826;28;8876;-77
2021/10/11 09:45:13;;;;;;;;;1.00;1.00;;;;;;;;5062152;28;8910;-79
2021/10/11 09:47:44;;;;;;;;;2.50;1.75;;;;;;;;5064534;28;8880;-78
2021/10/11 09:50:14;;;;;;;;;2.50;2.50;;;;;;;;5058163;28;9640;-78
2021/10/11 09:52:43;;;;;;;;;3.00;3.00;;;;;;;;5062155;28;8879;-78
2021/10/11 09:55:12;;;;;;;;;4.25;2.75;;;;;;;;5062784;28;8888;-77
2021/10/11 09:57:40;;;;;;;;;6.00;6.00;;;;;;;;5065616;28;8855;-78
2021/10/11 10:00:09;;;;;;;;;1.50;1.50;;;;;;;;5046435;28;8896;-79
2021/10/11 10:02:38;;;;;;;;;3.50;3.50;;;;;;;;5064000;28;8856;-78
2021/10/11 10:05:11;;;;;;;;;4.20;2.80;;;;;;;;5061495;28;8868;-76
2021/10/11 10:07:45;;;;;;;;;2.00;2.00;;;;;;;;5061237;28;8935;-74
2021/10/11 10:10:13;;;;;;;;;2.00;2.00;;;;;;;;5064177;28;9626;-72
2021/10/11 10:12:46;;;;;;;;;5.00;1.00;;;;;;;;5063611;28;8902;-72
2021/10/11 10:15:25;;;;;;;;;3.60;3.60;;;;;;;;5060036;28;8847;-74
2021/10/11 10:18:01;;;;;;;;;2.60;2.60;;;;;;;;5059286;28;8856;-76
2021/10/11 10:20:29;;;;;;;;;1.60;0.00;;;;;;;;5062845;28;8970;-75
2021/10/11 10:22:58;;;;;;;;;2.80;1.60;;;;;;;;5063325;28;8957;-74
2021/10/11 10:25:26;;;;;;;;;1.00;1.00;;;;;;;;5061161;28;8990;-75
2021/10/11 10:27:55;;;;;;;;;2.00;2.00;;;;;;;;5038169;28;8879;-75
2021/10/11 10:30:24;;;;;;;;;2.80;2.80;;;;;;;;5056336;28;11430;-75
2021/10/11 10:32:56;;;;;;;;;2.00;2.00;;;;;;;;5062680;28;8963;-74
2021/10/11 10:35:24;;;;;;;;;0.80;0.80;;;;;;;;5056709;28;8840;-74
2021/10/11 10:37:51;;;;;;;;;1.60;1.20;;;;;;;;5060491;28;8871;-74
2021/10/11 10:40:22;;;;;;;;;1.80;0.60;;;;;;;;5061724;28;8848;-74
2021/10/11 10:42:49;;;;;;;;;2.00;2.00;;;;;;;;5062056;28;8876;-75
2021/10/11 10:45:19;;;;;;;;;1.00;1.00;;;;;;;;5066756;28;9023;-74
2021/10/11 10:47:48;;;;;;;;;2.80;2.80;;;;;;;;5062143;28;8853;-74
2021/10/11 10:50:17;;;;;;;;;2.00;2.00;;;;;;;;5064567;28;8890;-74
2021/10/11 10:52:48;;;;;;;;;1.00;1.00;;;;;;;;5055218;28;8868;-74
2021/10/11 10:55:15;;;;;;;;;3.40;3.40;;;;;;;;5063335;28;8930;-74
2021/10/11 10:57:45;;;;;;;;;3.60;3.60;;;;;;;;5061575;28;8987;-74
2021/10/11 11:00:16;;;;;;;;;4.60;3.20;;;;;;;;5063639;28;8874;-75
2021/10/11 11:02:48;;;;;;;;;1.00;1.00;;;;;;;;5059640;28;8844;-74
2021/10/11 11:05:16;;;;;;;;;4.20;3.00;;;;;;;;5059420;28;8880;-72
2021/10/11 11:07:44;;;;;;;;;3.20;3.20;;;;;;;;5060346;28;8860;-73
2021/10/11 11:10:14;;;;;;;;;2.00;2.00;;;;;;;;5058330;28;8896;-73
2021/10/11 11:12:44;;;;;;;;;1.40;1.40;;;;;;;;5055450;28;8919;-73
2021/10/11 11:15:23;;;;;;;;;3.20;2.00;;;;;;;;5059348;28;8844;-74
2021/10/11 11:17:50;;;;;;;;;2.60;2.60;;;;;;;;5057118;28;8883;-72
2021/10/11 11:20:20;;;;;;;;;2.20;2.20;;;;;;;;5058592;28;8886;-72
2021/10/11 11:22:48;;;;;;;;;2.00;2.00;;;;;;;;5056660;28;8979;-73
2021/10/11 11:25:16;;;;;;;;;2.00;2.00;;;;;;;;5059496;28;8845;-73
2021/10/11 11:27:45;;;;;;;;;3.00;3.00;;;;;;;;5048738;28;8894;-73
2021/10/11 11:30:14;;;;;;;;;4.80;3.20;;;;;;;;5060576;28;8872;-74
2021/10/11 11:32:49;;;;;;;;;3.60;2.20;;;;;;;;5059908;28;8842;-74
2021/10/11 11:35:18;;;;;;;;;2.00;2.00;;;;;;;;5057663;28;8900;-74
2021/10/11 11:37:50;;;;;;;;;2.20;2.20;;;;;;;;5060038;28;8864;-73
2021/10/11 11:40:18;;;;;;;;;3.20;2.60;;;;;;;;5063220;28;8870;-73
2021/10/11 11:42:49;;;;;;;;;1.60;1.60;;;;;;;;5065088;28;8947;-74
2021/10/11 11:45:17;;;;;;;;;2.40;2.40;;;;;;;;5063898;28;8840;-74
2021/10/11 11:47:44;;;;;;;;;3.00;3.00;;;;;;;;5063916;28;8853;-73
2021/10/11 11:50:19;;;;;;;;;2.40;2.00;;;;;;;;5064584;28;8848;-74
2021/10/11 11:52:51;;;;;;;;;2.20;2.20;;;;;;;;5063560;28;8852;-74
2021/10/11 11:55:20;;;;;;;;;2.60;2.60;;;;;;;;5064555;28;8872;-74
2021/10/11 11:57:49;;;;;;;;;1.60;1.60;;;;;;;;5063279;28;8893;-74
2021/10/11 12:00:17;;;;;;;;;3.60;2.20;;;;;;;;5061764;28;8891;-74
2021/10/11 12:02:46;;;;;;;;;0.00;0.00;;;;;;;;5064096;28;8860;-73
2021/10/11 12:05:14;;;;;;;;;3.00;3.00;;;;;;;;5063898;28;8871;-74
2021/10/11 12:07:43;;;;;;;;;1.60;1.60;;;;;;;;5064596;28;9732;-74
2021/10/11 12:10:13;;;;;;;;;4.60;4.60;;;;;;;;5063091;28;8891;-74
2021/10/11 12:12:40;;;;;;;;;5.40;5.00;;;;;;;;5064458;28;8930;-73
2021/10/11 12:15:19;;;;;;;;;3.80;2.00;;;;;;;;5056226;28;8880;-74
2021/10/11 12:17:47;;;;;;;;;6.40;4.20;;;;;;;;5060716;28;8872;-73
2021/10/11 12:20:14;;;;;;;;;6.00;6.00;;;;;;;;5062491;28;8852;-73
2021/10/11 12:22:41;;;;;;;;;2.20;2.00;;;;;;;;5062866;28;8888;-73
2021/10/11 12:25:10;;;;;;;;;2.20;2.00;;;;;;;;5062193;28;9697;-73
2021/10/11 12:27:37;;;;;;;;;2.00;2.00;;;;;;;;5063156;28;8890;-73
2021/10/11 12:30:14;;;;;;;;;3.00;3.00;;;;;;;;5063134;28;9440;-73
2021/10/11 12:32:41;;;;;;;;;3.20;3.20;;;;;;;;5063018;28;8894;-73
2021/10/11 12:35:09;;;;;;;;;9.00;6.00;;;;;;;;5063933;28;8884;-73
2021/10/11 12:37:39;;;;;;;;;5.80;4.00;;;;;;;;5063590;28;8848;-73
2021/10/11 12:40:08;;;;;;;;;3.60;3.60;;;;;;;;5062509;28;9668;-73
2021/10/11 12:42:44;;;;;;;;;5.00;5.00;;;;;;;;5064230;28;8868;-73
2021/10/11 12:45:15;;;;;;;;;5.00;5.00;;;;;;;;5060445;28;8837;-74
2021/10/11 12:47:42;;;;;;;;;5.00;4.00;;;;;;;;5063754;28;8879;-74
2021/10/11 12:50:13;;;;;;;;;2.60;2.60;;;;;;;;5062768;28;8906;-74
2021/10/11 12:52:41;;;;;;;;;3.40;3.40;;;;;;;;5063919;28;9105;-74
2021/10/11 12:55:11;;;;;;;;;3.80;3.80;;;;;;;;5052251;28;8868;-74
2021/10/11 12:57:40;;;;;;;;;6.60;4.40;;;;;;;;5062742;28;8951;-74
2021/10/11 13:00:09;;;;;;;;;4.00;4.00;;;;;;;;5062985;28;8974;-73
2021/10/11 13:02:40;;;;;;;;;5.00;5.00;;;;;;;;5062342;28;8899;-73
2021/10/11 13:05:09;;;;;;;;;5.80;5.80;;;;;;;;5064288;28;8892;-73
2021/10/11 13:07:38;;;;;;;;;4.20;4.00;;;;;;;;5063454;28;8883;-73
2021/10/11 13:10:07;;;;;;;;;4.40;4.00;;;;;;;;5045430;28;8982;-74
2021/10/11 13:12:34;;;;;;;;;5.00;5.00;;;;;;;;5063486;28;8852;-74
2021/10/11 13:15:02;;;;;;;;;5.00;5.00;;;;;;;;5062281;28;8935;-74
2021/10/11 13:17:30;;;;;;;;;7.00;6.00;;;;;;;;5063485;28;9281;-73
2021/10/11 13:19:59;;;;;;;;;5.20;5.20;;;;;;;;5062187;28;8896;-73
2021/10/11 13:22:26;;;;;;;;;7.40;7.40;;;;;;;;5063817;28;8868;-73
2021/10/11 13:24:53;;;;;;;;;4.20;4.20;;;;;;;;5062215;28;8902;-73
2021/10/11 13:27:21;;;;;;;;;7.50;6.00;;;;;;;;5063304;28;8856;-73
2021/10/11 13:33:18;;;;;;;;;3.00;3.00;;;;;;;;5046087;28;8934;-72
2021/10/11 14:28:22;;;;;;;;;6.00;6.00;;;;;;;;5066404;28;9015;-74
2021/10/11 14:30:53;;;;;;;;;6.00;6.00;;;;;;;;5065722;28;8813;-75
2021/10/11 15:58:55;;;;;;;;;9.50;5.75;;;;;;;;5056168;28;8899;-73
2021/10/11 16:01:23;;;;;;;;;6.00;4.75;;;;;;;;5058481;28;8824;-73
2021/10/11 16:03:52;;;;;;;;;6.00;4.25;;;;;;;;5058939;28;8907;-72
2021/10/11 16:06:22;;;;;;;;;3.00;3.00;;;;;;;;5062731;28;8884;-72
2021/10/11 16:08:50;;;;;;;;;3.00;3.00;;;;;;;;5062110;28;8941;-73
2021/10/11 16:11:18;;;;;;;;;4.50;3.00;;;;;;;;5046160;28;8900;-73
2021/10/11 16:13:45;;;;;;;;;4.00;4.00;;;;;;;;5060860;28;8872;-73
2021/10/11 16:16:13;;;;;;;;;3.00;3.00;;;;;;;;5066319;28;8856;-73
2021/10/11 16:18:40;;;;;;;;;3.00;2.00;;;;;;;;5062558;28;8950;-73
2021/10/11 16:21:12;;;;;;;;;3.00;3.00;;;;;;;;5061405;28;8925;-73
2021/10/11 16:23:41;;;;;;;;;2.25;2.25;;;;;;;;5063392;28;8878;-73
2021/10/11 16:26:10;;;;;;;;;3.50;3.50;;;;;;;;5063291;28;8864;-72
2021/10/11 16:28:38;;;;;;;;;3.00;3.00;;;;;;;;5060749;28;8886;-73
2021/10/11 16:31:09;;;;;;;;;2.75;2.75;;;;;;;;5059537;28;8821;-72
2021/10/11 16:33:37;;;;;;;;;1.00;1.00;;;;;;;;5060403;28;8894;-72
2021/10/11 16:36:08;;;;;;;;;4.00;4.00;;;;;;;;5057933;28;9668;-72
2021/10/11 16:38:38;;;;;;;;;5.50;3.25;;;;;;;;5057155;28;8886;-73
2021/10/11 16:41:05;;;;;;;;;3.00;3.00;;;;;;;;5059341;28;9484;-71
2021/10/11 16:43:32;;;;;;;;;2.50;2.50;;;;;;;;5057569;28;8864;-72
2021/10/11 16:46:00;;;;;;;;;5.75;3.50;;;;;;;;5061608;28;9735;-73
2021/10/11 16:48:27;;;;;;;;;3.00;3.00;;;;;;;;5059435;28;8871;-72
2021/10/11 16:50:54;;;;;;;;;2.25;2.25;;;;;;;;5058345;28;8874;-73
2021/10/11 16:53:22;;;;;;;;;3.50;3.50;;;;;;;;5062175;28;9719;-74
2021/10/11 16:55:50;;;;;;;;;4.00;4.00;;;;;;;;5066140;28;8880;-72
2021/10/11 16:58:18;;;;;;;;;4.00;4.00;;;;;;;;5057525;28;8852;-73
2021/10/11 17:00:46;;;;;;;;;3.25;3.25;;;;;;;;5056536;28;8817;-72
2021/10/11 17:03:14;;;;;;;;;3.25;3.25;;;;;;;;5061423;28;8848;-71
2021/10/11 17:05:41;;;;;;;;;5.00;4.75;;;;;;;;5056317;28;9707;-72
2021/10/11 17:08:08;;;;;;;;;4.00;4.00;;;;;;;;5061555;28;8872;-72
2021/10/11 17:10:36;;;;;;;;;6.50;4.00;;;;;;;;5056769;28;8864;-74
2021/10/11 17:13:04;;;;;;;;;3.00;3.00;;;;;;;;5060686;28;8895;-71
2021/10/11 17:15:32;;;;;;;;;3.25;3.25;;;;;;;;5042648;28;8860;-74
2021/10/11 17:17:59;;;;;;;;;6.00;4.00;;;;;;;;5061543;28;8856;-73